createdAt,value
2019-05-03T00:00:44.283Z,99.90
2019-05-03T00:03:14.401Z,99.90
2019-05-03T00:05:46.743Z,99.90
2019-05-03T00:08:16.020Z,99.90
2019-05-03T00:10:45.756Z,99.90
2019-05-03T00:13:15.448Z,99.90
2019-05-03T00:16:12.767Z,99.90
2019-05-03T00:18:42.512Z,99.90
2019-05-03T00:21:11.800Z,99.90
2019-05-03T00:23:41.893Z,99.90
2019-05-03T00:26:12.001Z,99.90
2019-05-03T00:28:42.673Z,99.90
2019-05-03T00:31:12.639Z,99.90
2019-05-03T00:33:43.820Z,99.90
2019-05-03T00:36:32.869Z,99.90
2019-05-03T00:39:16.093Z,99.90
2019-05-03T00:41:45.827Z,99.90
2019-05-03T00:44:15.256Z,99.90
2019-05-03T00:46:44.978Z,99.90
2019-05-03T00:49:14.716Z,99.90
2019-05-03T00:51:44.355Z,99.90
2019-05-03T00:54:14.038Z,99.90
2019-05-03T00:56:44.556Z,99.90
2019-05-03T00:59:14.893Z,99.90
2019-05-03T01:01:45.555Z,99.90
2019-05-03T01:04:14.976Z,99.90
2019-05-03T01:06:45.159Z,99.90
2019-05-03T01:09:19.635Z,99.90
2019-05-03T01:11:49.025Z,99.90
2019-05-03T01:14:18.735Z,99.90
2019-05-03T01:16:48.126Z,99.90
2019-05-03T01:19:18.000Z,99.90
2019-05-03T01:21:47.666Z,99.90
2019-05-03T01:24:18.416Z,99.90
2019-05-03T01:26:48.005Z,99.90
2019-05-03T01:29:17.674Z,99.90
2019-05-03T01:31:47.305Z,99.90
2019-05-03T01:34:17.106Z,99.90
2019-05-03T01:36:46.635Z,99.90
2019-05-03T01:39:16.516Z,99.90
2019-05-03T01:41:45.849Z,99.90
2019-05-03T01:44:15.211Z,99.90
2019-05-03T01:47:02.343Z,99.90
2019-05-03T01:50:05.408Z,99.90
2019-05-03T01:52:45.609Z,99.90
2019-05-03T01:56:03.533Z,99.90
2019-05-03T01:58:48.850Z,99.90
2019-05-03T02:02:02.343Z,99.90
2019-05-03T02:04:59.102Z,99.90
2019-05-03T02:07:28.829Z,99.90
2019-05-03T02:09:58.270Z,99.90
2019-05-03T02:12:28.967Z,99.90
2019-05-03T02:14:58.663Z,99.90
2019-05-03T02:17:28.429Z,99.90
2019-05-03T02:19:57.804Z,99.90
2019-05-03T02:22:27.134Z,99.90
2019-05-03T02:24:56.750Z,99.90
2019-05-03T02:27:26.160Z,99.90
2019-05-03T02:29:55.498Z,99.90
2019-05-03T02:32:24.911Z,99.90
2019-05-03T02:35:03.297Z,99.90
2019-05-03T02:37:36.449Z,99.90
2019-05-03T02:40:12.999Z,99.90
2019-05-03T02:43:06.413Z,99.90
2019-05-03T02:45:56.806Z,99.90
2019-05-03T02:48:36.784Z,99.90
2019-05-03T02:51:11.164Z,99.90
2019-05-03T02:53:51.138Z,99.90
2019-05-03T02:56:30.890Z,99.90
2019-05-03T02:59:00.583Z,99.90
2019-05-03T03:01:30.900Z,99.90
2019-05-03T03:04:00.733Z,99.90
2019-05-03T03:06:32.266Z,99.90
2019-05-03T03:09:05.410Z,99.90
2019-05-03T03:11:40.348Z,99.90
2019-05-03T03:14:16.431Z,99.90
2019-05-03T03:16:46.399Z,99.90
2019-05-03T03:19:17.863Z,99.90
2019-05-03T03:21:50.495Z,99.90
2019-05-03T03:24:25.907Z,99.90
2019-05-03T03:26:57.052Z,99.90
2019-05-03T03:29:28.700Z,99.90
2019-05-03T03:32:17.657Z,99.90
2019-05-03T03:35:00.506Z,99.90
2019-05-03T03:37:25.821Z,99.90
2019-05-03T03:39:56.145Z,99.90
2019-05-03T03:42:25.985Z,99.90
2019-05-03T03:44:57.430Z,99.90
2019-05-03T03:47:29.806Z,99.90
2019-05-03T03:50:01.098Z,99.90
2019-05-03T03:52:35.860Z,99.90
2019-05-03T03:55:06.478Z,99.90
2019-05-03T03:57:37.004Z,99.90
2019-05-03T04:00:08.662Z,99.90
2019-05-03T04:02:39.378Z,99.90
2019-05-03T04:05:09.168Z,99.90
2019-05-03T04:07:40.060Z,99.90
2019-05-03T04:10:09.612Z,99.90
2019-05-03T04:12:41.414Z,99.90
2019-05-03T04:15:28.899Z,99.90
2019-05-03T04:18:17.651Z,99.90
2019-05-03T04:20:46.983Z,99.90
2019-05-03T04:23:16.487Z,99.90
2019-05-03T04:25:46.426Z,99.90
2019-05-03T04:28:16.419Z,99.90
2019-05-03T04:30:46.165Z,99.90
2019-05-03T04:33:16.069Z,99.90
2019-05-03T04:35:46.484Z,99.90
2019-05-03T04:38:16.612Z,99.90
2019-05-03T04:40:45.926Z,99.90
2019-05-03T04:43:16.440Z,99.90
2019-05-03T04:46:00.935Z,99.90
2019-05-03T04:48:31.785Z,99.90
2019-05-03T04:51:05.892Z,99.90
2019-05-03T04:53:37.206Z,99.90
2019-05-03T04:56:07.500Z,99.90
2019-05-03T04:58:38.442Z,99.90
2019-05-03T05:01:08.151Z,99.90
2019-05-03T05:03:37.580Z,99.90
2019-05-03T05:06:07.384Z,99.90
2019-05-03T05:08:36.776Z,99.90
2019-05-03T05:11:10.414Z,99.90
2019-05-03T05:13:38.325Z,99.90
2019-05-03T05:16:07.667Z,99.90
2019-05-03T05:18:41.891Z,99.90
2019-05-03T05:21:39.086Z,99.90
2019-05-03T05:24:08.542Z,99.90
2019-05-03T05:26:59.910Z,99.90
2019-05-03T05:29:31.012Z,99.90
2019-05-03T05:32:00.328Z,99.90
2019-05-03T05:34:29.736Z,99.90
2019-05-03T05:37:00.300Z,99.90
2019-05-03T05:39:29.803Z,99.90
2019-05-03T05:41:59.148Z,99.90
2019-05-03T05:44:28.465Z,99.90
2019-05-03T05:47:21.704Z,99.90
2019-05-03T05:49:54.737Z,99.90
2019-05-03T05:52:24.586Z,99.90
2019-05-03T05:55:04.532Z,99.90
2019-05-03T05:58:05.010Z,99.90
2019-05-03T06:00:44.814Z,99.90
2019-05-03T06:03:14.929Z,99.90
2019-05-03T06:05:54.910Z,99.90
2019-05-03T06:08:45.780Z,99.90
2019-05-03T06:11:29.466Z,99.90
2019-05-03T06:14:12.491Z,99.90
2019-05-03T06:16:48.353Z,99.90
2019-05-03T06:19:26.686Z,99.90
2019-05-03T06:22:15.406Z,99.90
2019-05-03T06:24:50.884Z,99.90
2019-05-03T06:27:40.286Z,99.90
2019-05-03T06:30:35.094Z,99.90
2019-05-03T06:33:06.226Z,99.90
2019-05-03T06:35:38.468Z,99.90
2019-05-03T06:38:07.994Z,99.90
2019-05-03T06:40:54.433Z,99.90
2019-05-03T06:43:29.620Z,99.90
2019-05-03T06:46:25.337Z,99.90
2019-05-03T06:49:19.291Z,99.90
2019-05-03T06:52:08.615Z,99.90
2019-05-03T06:54:52.200Z,99.90
2019-05-03T06:57:25.859Z,99.90
2019-05-03T07:00:26.171Z,99.90
2019-05-03T07:03:27.773Z,99.90
2019-05-03T07:06:17.955Z,99.90
2019-05-03T07:09:18.580Z,99.90
2019-05-03T07:12:00.789Z,99.90
2019-05-03T07:14:47.338Z,99.90
2019-05-03T07:17:24.687Z,99.90
2019-05-03T07:20:08.543Z,99.90
2019-05-03T07:22:39.688Z,99.90
2019-05-03T07:25:25.572Z,99.90
2019-05-03T07:28:30.008Z,99.90
2019-05-03T07:31:26.664Z,99.90
2019-05-03T07:34:41.406Z,99.90
2019-05-03T07:37:34.754Z,99.90
2019-05-03T07:40:35.623Z,99.90
2019-05-03T07:43:26.465Z,99.90
2019-05-03T07:46:01.115Z,99.90
2019-05-03T07:48:52.213Z,99.90
2019-05-03T07:51:28.316Z,99.90
2019-05-03T07:54:08.052Z,99.90
2019-05-03T07:57:05.340Z,99.90
2019-05-03T07:59:40.012Z,99.90
2019-05-03T08:02:54.937Z,99.90
2019-05-03T08:05:39.370Z,99.90
2019-05-03T08:08:20.084Z,99.90
2019-05-03T08:11:24.928Z,99.90
2019-05-03T08:14:35.737Z,99.90
2019-05-03T08:17:21.528Z,99.90
2019-05-03T08:20:06.711Z,99.90
2019-05-03T08:23:08.627Z,99.90
2019-05-03T08:25:57.050Z,99.90
2019-05-03T08:28:34.549Z,99.90
2019-05-03T08:31:31.118Z,99.90
2019-05-03T08:35:04.806Z,99.90
2019-05-03T08:37:58.085Z,99.90
2019-05-03T08:41:01.770Z,99.90
2019-05-03T08:43:56.986Z,98.80
2019-05-03T08:46:36.024Z,99.90
2019-05-03T08:49:18.425Z,99.90
2019-05-03T08:51:49.943Z,99.90
2019-05-03T08:54:34.526Z,99.90
2019-05-03T08:57:10.016Z,99.90
2019-05-03T08:59:59.478Z,98.40
2019-05-03T09:02:45.079Z,98.10
2019-05-03T09:05:37.099Z,95.80
2019-05-03T09:08:15.751Z,96.60
2019-05-03T09:11:07.370Z,98.80
2019-05-03T09:14:14.986Z,98.80
2019-05-03T09:16:50.834Z,97.80
2019-05-03T09:19:25.647Z,94.40
2019-05-03T09:22:14.730Z,95.50
2019-05-03T09:24:54.546Z,93.70
2019-05-03T09:27:24.790Z,93.00
2019-05-03T09:30:14.511Z,91.90
2019-05-03T09:32:49.239Z,91.70
2019-05-03T09:35:47.325Z,92.30
2019-05-03T09:38:25.658Z,92.10
2019-05-03T09:41:15.061Z,90.20
2019-05-03T09:43:46.907Z,90.80
2019-05-03T09:46:29.493Z,91.50
2019-05-03T09:49:13.289Z,92.30
2019-05-03T09:51:44.441Z,90.90
2019-05-03T09:54:20.537Z,90.80
2019-05-03T09:56:58.655Z,91.50
2019-05-03T09:59:35.099Z,86.50
2019-05-03T10:02:04.922Z,84.00
2019-05-03T10:04:36.586Z,81.80
2019-05-03T10:07:08.696Z,84.20
2019-05-03T10:09:39.684Z,83.80
2019-05-03T10:12:16.360Z,86.50
2019-05-03T10:14:47.213Z,87.60
2019-05-03T10:17:47.836Z,88.10
2019-05-03T10:20:19.716Z,84.70
2019-05-03T10:22:49.230Z,80.60
2019-05-03T10:25:22.101Z,78.10
2019-05-03T10:27:54.926Z,74.70
2019-05-03T10:30:27.532Z,72.00
2019-05-03T10:33:23.234Z,71.10
2019-05-03T10:35:54.576Z,71.50
2019-05-03T10:38:24.709Z,73.50
2019-05-03T10:40:55.073Z,74.60
2019-05-03T10:43:24.920Z,75.00
2019-05-03T10:45:57.306Z,78.90
2019-05-03T10:48:26.899Z,81.10
2019-05-03T10:51:04.711Z,81.80
2019-05-03T10:53:41.279Z,82.60
2019-05-03T10:56:26.753Z,82.70
2019-05-03T10:59:02.884Z,81.30
2019-05-03T11:01:45.496Z,76.90
2019-05-03T11:04:15.316Z,73.20
2019-05-03T11:06:48.190Z,71.90
2019-05-03T11:09:21.122Z,73.20
2019-05-03T11:11:50.771Z,74.30
2019-05-03T11:14:22.827Z,72.80
2019-05-03T11:20:54.995Z,69.10
2019-05-03T11:23:25.158Z,65.00
2019-05-03T11:25:56.310Z,65.00
2019-05-03T11:28:26.657Z,65.30
2019-05-03T11:31:02.434Z,63.10
2019-05-03T11:33:41.688Z,66.00
2019-05-03T11:36:34.753Z,67.50
2019-05-03T11:39:08.739Z,68.70
2019-05-03T11:41:40.568Z,66.60
2019-05-03T11:44:31.851Z,67.10
2019-05-03T11:47:01.403Z,66.80
2019-05-03T11:49:34.844Z,67.20
2019-05-03T11:52:08.035Z,67.10
2019-05-03T11:54:37.541Z,67.30
2019-05-03T11:57:12.806Z,68.80
2019-05-03T11:59:42.327Z,68.30
2019-05-03T12:02:24.809Z,68.40
2019-05-03T12:04:57.482Z,67.90
2019-05-03T12:07:38.852Z,66.00
2019-05-03T12:10:15.013Z,67.10
2019-05-03T12:12:37.946Z,66.00
2019-05-03T12:15:11.166Z,66.70
2019-05-03T12:17:54.468Z,68.10
2019-05-03T12:20:19.707Z,67.10
2019-05-03T12:22:51.820Z,67.10
2019-05-03T12:25:25.605Z,66.70
2019-05-03T12:27:54.676Z,65.40
2019-05-03T12:30:35.327Z,65.50
2019-05-03T12:33:25.818Z,66.20
2019-05-03T12:35:57.722Z,64.00
2019-05-03T12:38:30.791Z,62.00
2019-05-03T12:41:00.337Z,62.60
2019-05-03T12:43:29.732Z,65.60
2019-05-03T12:45:59.223Z,64.20
2019-05-03T12:48:28.703Z,60.80
2019-05-03T12:50:58.517Z,63.00
2019-05-03T12:53:28.379Z,65.00
2019-05-03T12:55:57.775Z,64.60
2019-05-03T12:58:48.305Z,64.90
2019-05-03T13:01:33.998Z,64.70
2019-05-03T13:04:10.863Z,62.70
2019-05-03T13:06:45.255Z,61.80
2019-05-03T13:09:16.011Z,63.50
2019-05-03T13:11:55.230Z,61.70
2019-05-03T13:14:18.351Z,63.30
2019-05-03T13:16:47.874Z,62.20
2019-05-03T13:19:17.335Z,63.40
2019-05-03T13:21:46.784Z,61.70
2019-05-03T13:24:22.825Z,61.00
2019-05-03T13:26:47.587Z,61.60
2019-05-03T13:29:16.936Z,62.60
2019-05-03T13:31:58.213Z,62.30
2019-05-03T13:34:17.509Z,62.80
2019-05-03T13:36:47.029Z,62.90
2019-05-03T13:39:16.526Z,65.90
2019-05-03T13:41:46.082Z,64.70
2019-05-03T13:44:15.800Z,66.40
2019-05-03T13:46:45.370Z,65.40
2019-05-03T13:49:15.854Z,65.80
2019-05-03T13:51:45.504Z,67.40
2019-05-03T13:54:15.074Z,68.80
2019-05-03T13:56:44.562Z,69.70
2019-05-03T13:59:19.873Z,68.50
2019-05-03T14:01:45.233Z,69.20
2019-05-03T14:04:14.909Z,68.50
2019-05-03T14:06:44.830Z,68.70
2019-05-03T14:09:14.461Z,69.90
2019-05-03T14:11:44.813Z,70.40
2019-05-03T14:14:15.241Z,68.20
2019-05-03T14:16:45.234Z,68.30
2019-05-03T14:19:20.221Z,66.70
2019-05-03T14:21:54.518Z,65.70
2019-05-03T14:24:24.582Z,64.10
2019-05-03T14:26:55.174Z,63.20
2019-05-03T14:29:25.245Z,63.50
2019-05-03T14:31:55.367Z,63.20
2019-05-03T14:34:25.710Z,62.20
2019-05-03T14:36:55.650Z,62.90
2019-05-03T14:39:25.446Z,63.10
2019-05-03T14:41:55.607Z,62.20
2019-05-03T14:44:25.368Z,63.00
2019-05-03T14:46:58.703Z,61.90
2019-05-03T14:49:26.216Z,61.40
2019-05-03T14:51:56.800Z,61.40
2019-05-03T14:54:28.914Z,61.90
2019-05-03T14:57:20.503Z,59.90
2019-05-03T15:00:16.896Z,60.30
2019-05-03T15:03:04.837Z,61.30
2019-05-03T15:05:34.858Z,61.40
2019-05-03T15:08:05.593Z,61.20
2019-05-03T15:10:35.232Z,61.30
2019-05-03T15:13:05.216Z,62.50
2019-05-03T15:15:34.912Z,61.00
2019-05-03T15:18:05.913Z,60.50
2019-05-03T15:20:35.573Z,58.90
2019-05-03T15:23:05.594Z,57.80
2019-05-03T15:25:35.211Z,57.40
2019-05-03T15:28:05.171Z,57.50
2019-05-03T15:30:35.345Z,57.80
2019-05-03T15:33:05.177Z,57.40
2019-05-03T15:35:35.266Z,58.30
2019-05-03T15:38:05.605Z,59.50
2019-05-03T15:40:35.211Z,58.00
2019-05-03T15:43:15.369Z,58.50
2019-05-03T15:46:05.210Z,59.60
2019-05-03T15:48:39.093Z,59.00
2019-05-03T15:51:08.666Z,58.90
2019-05-03T15:53:38.192Z,59.60
2019-05-03T15:56:07.731Z,58.90
2019-05-03T15:58:37.256Z,59.10
2019-05-03T16:01:06.734Z,59.60
2019-05-03T16:03:36.227Z,59.90
2019-05-03T16:06:05.981Z,60.50
2019-05-03T16:08:35.395Z,60.90
2019-05-03T16:11:05.351Z,60.60
2019-05-03T16:13:35.269Z,61.00
2019-05-03T16:16:06.175Z,61.80
2019-05-03T16:18:35.722Z,62.90
2019-05-03T16:21:05.271Z,63.40
2019-05-03T16:23:34.819Z,64.00
2019-05-03T16:26:04.970Z,65.00
2019-05-03T16:28:58.475Z,66.10
2019-05-03T16:31:27.957Z,67.30
2019-05-03T16:33:57.394Z,68.20
2019-05-03T16:36:26.923Z,69.30
2019-05-03T16:38:56.444Z,69.90
2019-05-03T16:41:25.992Z,69.90
2019-05-03T16:43:55.436Z,70.90
2019-05-03T16:46:26.107Z,71.10
2019-05-03T16:48:55.593Z,71.40
2019-05-03T16:51:25.423Z,72.60
2019-05-03T16:53:55.153Z,72.90
2019-05-03T16:56:24.657Z,73.80
2019-05-03T16:58:55.031Z,74.70
2019-05-03T17:01:24.611Z,75.40
2019-05-03T17:03:59.154Z,76.10
2019-05-03T17:06:49.008Z,77.10
2019-05-03T17:09:36.382Z,78.10
2019-05-03T17:12:08.399Z,79.30
2019-05-03T17:14:38.009Z,80.30
2019-05-03T17:17:07.530Z,81.20
2019-05-03T17:19:36.976Z,82.30
2019-05-03T17:22:06.575Z,83.20
2019-05-03T17:24:36.105Z,84.40
2019-05-03T17:27:05.647Z,86.90
2019-05-03T17:29:35.698Z,88.40
2019-05-03T17:32:05.265Z,90.10
2019-05-03T17:34:34.819Z,90.90
2019-05-03T17:37:05.006Z,91.80
2019-05-03T17:40:06.502Z,91.80
2019-05-03T17:42:54.728Z,91.90
2019-05-03T17:45:29.833Z,91.70
2019-05-03T17:47:59.315Z,92.60
2019-05-03T17:50:28.866Z,93.50
2019-05-03T17:53:09.434Z,94.40
2019-05-03T17:56:00.894Z,95.30
2019-05-03T17:58:58.298Z,96.20
2019-05-03T18:01:46.814Z,97.50
2019-05-03T18:04:24.841Z,98.70
2019-05-03T18:07:16.356Z,99.00
2019-05-03T18:09:46.410Z,99.60
2019-05-03T18:12:16.057Z,99.90
2019-05-03T18:14:45.573Z,99.90
2019-05-03T18:17:15.035Z,99.90
2019-05-03T18:19:44.899Z,99.90
2019-05-03T18:22:16.952Z,99.90
2019-05-03T18:24:46.422Z,99.90
2019-05-03T18:27:15.883Z,99.90
2019-05-03T18:29:45.321Z,99.90
2019-05-03T18:32:14.835Z,99.90
2019-05-03T18:34:45.358Z,99.90
2019-05-03T18:37:15.353Z,99.90
2019-05-03T18:39:45.325Z,99.90
2019-05-03T18:42:20.769Z,99.90
2019-05-03T18:44:55.213Z,99.90
2019-05-03T18:47:25.848Z,99.90
2019-05-03T18:49:55.344Z,99.90
2019-05-03T18:52:24.849Z,99.90
2019-05-03T18:54:55.150Z,99.90
2019-05-03T18:57:25.599Z,99.90
2019-05-03T18:59:55.632Z,99.90
2019-05-03T19:02:25.693Z,99.90
2019-05-03T19:04:56.058Z,99.90
2019-05-03T19:07:47.532Z,99.90
2019-05-03T19:10:29.079Z,99.90
2019-05-03T19:13:04.553Z,99.90
2019-05-03T19:15:34.616Z,99.90
2019-05-03T19:18:08.299Z,99.90
2019-05-03T19:20:37.818Z,99.90
2019-05-03T19:23:07.441Z,99.90
2019-05-03T19:25:46.158Z,99.90
2019-05-03T19:28:08.254Z,99.90
2019-05-03T19:30:39.369Z,99.90
2019-05-03T19:33:08.857Z,99.90
2019-05-03T19:35:38.221Z,99.90
2019-05-03T19:38:07.803Z,99.90
2019-05-03T19:40:37.219Z,99.90
2019-05-03T19:43:06.721Z,99.90
2019-05-03T19:45:36.148Z,99.90
2019-05-03T19:48:05.644Z,99.90
2019-05-03T19:50:35.658Z,99.90
2019-05-03T19:53:27.142Z,99.90
2019-05-03T19:55:56.588Z,99.90
2019-05-03T19:58:26.123Z,99.90
2019-05-03T20:01:20.527Z,99.90
2019-05-03T20:03:56.060Z,99.90
2019-05-03T20:06:35.387Z,99.90
2019-05-03T20:09:10.902Z,99.90
2019-05-03T20:11:40.445Z,99.90
2019-05-03T20:14:09.980Z,99.90
2019-05-03T20:16:39.491Z,99.90
2019-05-03T20:19:17.793Z,99.90
2019-05-03T20:21:40.111Z,99.90
2019-05-03T20:24:09.651Z,99.90
2019-05-03T20:26:39.152Z,99.90
2019-05-03T20:29:08.645Z,99.90
2019-05-03T20:31:38.142Z,99.90
2019-05-03T20:34:07.591Z,99.90
2019-05-03T20:36:37.030Z,99.90
2019-05-03T20:39:07.038Z,99.90
2019-05-03T20:41:36.563Z,99.90
2019-05-03T20:44:24.947Z,99.90
2019-05-03T20:47:19.389Z,99.90
2019-05-03T20:50:07.718Z,99.90
2019-05-03T20:52:37.983Z,99.90
2019-05-03T20:55:07.520Z,99.90
2019-05-03T20:57:36.969Z,99.90
2019-05-03T21:00:07.165Z,99.90
2019-05-03T21:02:36.582Z,99.90
2019-05-03T21:05:07.129Z,99.90
2019-05-03T21:07:36.545Z,99.90
2019-05-03T21:10:06.757Z,99.90
2019-05-03T21:12:36.303Z,99.90
2019-05-03T21:15:07.517Z,99.90
2019-05-03T21:17:45.299Z,99.90
2019-05-03T21:20:34.827Z,99.90
2019-05-03T21:23:05.548Z,99.90
2019-05-03T21:26:03.529Z,99.90
2019-05-03T21:28:16.141Z,99.90
2019-05-03T21:30:45.745Z,99.90
2019-05-03T21:33:15.759Z,99.90
2019-05-03T21:35:45.466Z,99.90
2019-05-03T21:38:15.067Z,99.90
2019-05-03T21:40:45.283Z,99.90
2019-05-03T21:43:15.260Z,99.90
2019-05-03T21:45:50.208Z,99.90
2019-05-03T21:48:24.955Z,99.90
2019-05-03T21:50:55.035Z,99.90
2019-05-03T21:53:25.089Z,99.90
2019-05-03T21:55:54.840Z,99.90
2019-05-03T21:58:25.046Z,99.90
2019-05-03T22:01:02.167Z,99.90
2019-05-03T22:03:31.654Z,99.90
2019-05-03T22:06:01.149Z,99.90
2019-05-03T22:08:30.630Z,99.90
2019-05-03T22:11:00.227Z,99.90
2019-05-03T22:13:29.771Z,99.90
2019-05-03T22:16:10.099Z,99.90
2019-05-03T22:18:39.631Z,99.90
2019-05-03T22:21:26.663Z,99.90
2019-05-03T22:24:22.280Z,99.90
2019-05-03T22:26:52.144Z,99.90
2019-05-03T22:29:22.036Z,99.90
2019-05-03T22:31:51.452Z,99.90
2019-05-03T22:34:22.145Z,99.90
2019-05-03T22:36:51.540Z,99.90
2019-05-03T22:39:21.843Z,99.90
2019-05-03T22:41:53.860Z,99.90
2019-05-03T22:44:25.396Z,99.90
2019-05-03T22:46:55.166Z,99.90
2019-05-03T22:49:26.032Z,99.90
2019-05-03T22:51:56.908Z,99.90
2019-05-03T22:54:26.700Z,99.90
2019-05-03T22:56:57.111Z,99.90
2019-05-03T22:59:26.656Z,99.90
2019-05-03T23:01:57.517Z,99.90
2019-05-03T23:04:27.010Z,99.90
2019-05-03T23:06:56.763Z,99.90
2019-05-03T23:09:26.629Z,99.90
2019-05-03T23:11:56.200Z,99.90
2019-05-03T23:14:25.965Z,99.90
2019-05-03T23:16:55.518Z,99.90
2019-05-03T23:19:25.873Z,99.90
2019-05-03T23:22:04.787Z,99.90
2019-05-03T23:24:35.286Z,99.90
2019-05-03T23:27:05.190Z,99.90
2019-05-03T23:29:35.027Z,99.90
2019-05-03T23:32:04.852Z,99.90
2019-05-03T23:34:35.109Z,99.90
2019-05-03T23:37:05.573Z,99.90
2019-05-03T23:39:36.523Z,99.90
2019-05-03T23:42:06.359Z,99.90
2019-05-03T23:44:35.919Z,99.90
2019-05-03T23:47:39.649Z,99.90
2019-05-03T23:50:11.650Z,99.90
2019-05-03T23:52:41.120Z,99.90
2019-05-03T23:55:39.055Z,99.90
2019-05-03T23:58:08.599Z,99.90
